createdAt,value
2018-08-04T00:01:45.482Z,96164.05
2018-08-04T00:04:16.040Z,96164.28
2018-08-04T00:06:46.496Z,96162.55
2018-08-04T00:09:17.959Z,96163.40
2018-08-04T00:11:48.418Z,96166.11
2018-08-04T00:14:20.356Z,96169.52
2018-08-04T00:16:52.007Z,96168.84
2018-08-04T00:19:22.635Z,96164.55
2018-08-04T00:21:53.103Z,96163.29
2018-08-04T00:24:23.501Z,96164.51
2018-08-04T00:26:54.173Z,96162.39
2018-08-04T00:29:24.645Z,96155.92
2018-08-04T00:31:55.381Z,96159.98
2018-08-04T00:34:25.827Z,96160.55
2018-08-04T00:36:56.267Z,96159.87
2018-08-04T00:39:27.109Z,96163.16
2018-08-04T00:41:57.529Z,96164.16
2018-08-04T00:44:27.935Z,96166.84
2018-08-04T00:46:58.416Z,96166.73
2018-08-04T00:49:28.876Z,96162.20
2018-08-04T00:51:59.717Z,96165.45
2018-08-04T00:54:30.197Z,96165.90
2018-08-04T00:57:00.648Z,96165.33
2018-08-04T00:59:31.138Z,96156.46
2018-08-04T01:02:01.808Z,96159.55
2018-08-04T01:04:32.232Z,96161.05
2018-08-04T01:07:02.748Z,96161.88
2018-08-04T01:09:33.121Z,96157.77
2018-08-04T01:12:04.971Z,96160.53
2018-08-04T01:16:04.729Z,96167.89
2018-08-04T01:18:35.849Z,96159.92
2018-08-04T01:21:06.343Z,96159.73
2018-08-04T01:23:36.809Z,96154.16
2018-08-04T01:26:07.257Z,96157.09
2018-08-04T01:28:38.659Z,96164.99
2018-08-04T01:31:09.079Z,96162.58
2018-08-04T01:33:39.667Z,96171.58
2018-08-04T01:36:10.097Z,96171.61
2018-08-04T01:38:40.507Z,96165.11
2018-08-04T01:41:11.021Z,96164.70
2018-08-04T01:43:41.392Z,96161.95
2018-08-04T01:46:11.960Z,96159.94
2018-08-04T01:48:42.374Z,96153.34
2018-08-04T01:51:12.810Z,96146.72
2018-08-04T01:53:43.194Z,96147.78
2018-08-04T01:56:13.872Z,96149.30
2018-08-04T01:58:44.390Z,96146.19
2018-08-04T02:01:14.811Z,96148.81
2018-08-04T02:03:45.590Z,96148.84
2018-08-04T02:06:15.932Z,96150.89
2018-08-04T02:08:46.412Z,96143.28
2018-08-04T02:11:16.954Z,96139.89
2018-08-04T02:13:47.364Z,96143.58
2018-08-04T02:16:17.854Z,96150.73
2018-08-04T02:18:48.305Z,96149.79
2018-08-04T02:21:18.719Z,96145.03
2018-08-04T02:23:49.510Z,96146.42
2018-08-04T02:26:19.960Z,96144.73
2018-08-04T02:28:50.380Z,96144.64
2018-08-04T02:31:20.749Z,96142.18
2018-08-04T02:33:51.174Z,96136.75
2018-08-04T02:36:21.964Z,96144.96
2018-08-04T02:38:52.322Z,96142.92
2018-08-04T02:41:22.738Z,96139.23
2018-08-04T02:43:53.163Z,96138.45
2018-08-04T02:46:23.418Z,96135.68
2018-08-04T02:48:53.936Z,96142.95
2018-08-04T02:51:24.334Z,96138.36
2018-08-04T02:53:54.799Z,96143.61
2018-08-04T02:56:25.225Z,96139.91
2018-08-04T02:58:55.622Z,96140.08
2018-08-04T03:01:26.066Z,96130.05
2018-08-04T03:03:56.582Z,96130.99
2018-08-04T03:06:27.012Z,96129.28
2018-08-04T03:12:33.913Z,96129.13
2018-08-04T03:15:04.417Z,96123.91
2018-08-04T03:17:35.153Z,96121.59
2018-08-04T03:20:07.010Z,96126.38
2018-08-04T03:22:37.850Z,96135.82
2018-08-04T03:25:08.391Z,96141.83
2018-08-04T03:27:38.808Z,96151.69
2018-08-04T03:30:09.266Z,96151.11
2018-08-04T03:32:40.826Z,96152.05
2018-08-04T03:35:11.266Z,96143.24
2018-08-04T03:37:41.657Z,96154.23
2018-08-04T03:40:12.090Z,96159.77
2018-08-04T03:42:42.816Z,96158.84
2018-08-04T03:48:49.512Z,96170.44
2018-08-04T03:51:20.296Z,96171.48
2018-08-04T03:53:50.706Z,96174.29
2018-08-04T03:56:21.085Z,96176.59
2018-08-04T03:58:51.446Z,96176.75
2018-08-04T04:01:22.352Z,96175.98
2018-08-04T04:03:53.126Z,96171.80
2018-08-04T04:06:23.532Z,96171.97
2018-08-04T04:08:53.967Z,96173.53
2018-08-04T04:11:24.368Z,96173.81
2018-08-04T04:13:54.762Z,96180.45
2018-08-04T04:16:25.245Z,96179.20
2018-08-04T04:18:56.017Z,96171.48
2018-08-04T04:21:26.448Z,96180.00
2018-08-04T04:23:56.872Z,96185.83
2018-08-04T04:26:27.356Z,96186.77
2018-08-04T04:28:57.948Z,96181.06
2018-08-04T04:31:28.408Z,96185.86
2018-08-04T04:33:58.870Z,96186.94
2018-08-04T04:36:29.237Z,96189.86
2018-08-04T04:38:59.903Z,96183.37
2018-08-04T04:41:30.374Z,96184.76
2018-08-04T04:44:00.832Z,96187.38
2018-08-04T04:46:35.480Z,96194.48
2018-08-04T04:49:06.805Z,96188.61
2018-08-04T04:51:37.569Z,96189.33
2018-08-04T04:54:08.105Z,96186.38
2018-08-04T04:56:39.099Z,96187.41
2018-08-04T04:59:09.534Z,96194.50
2018-08-04T05:01:39.987Z,96198.19
2018-08-04T05:04:10.393Z,96195.55
2018-08-04T05:06:40.887Z,96203.65
2018-08-04T05:09:11.423Z,96198.30
2018-08-04T05:11:42.821Z,96202.86
2018-08-04T05:14:13.303Z,96206.81
2018-08-04T05:16:43.893Z,96207.27
2018-08-04T05:19:14.009Z,96214.13
2018-08-04T05:21:44.221Z,96218.22
2018-08-04T05:24:14.419Z,96224.89
2018-08-04T05:26:45.273Z,96217.86
2018-08-04T05:29:15.509Z,96224.27
2018-08-04T05:31:45.757Z,96226.34
2018-08-04T05:34:15.946Z,96218.16
2018-08-04T05:36:46.213Z,96221.35
2018-08-04T05:39:16.389Z,96225.98
2018-08-04T05:41:46.782Z,96232.12
2018-08-04T05:44:17.007Z,96230.13
2018-08-04T05:46:47.287Z,96225.47
2018-08-04T05:49:17.433Z,96229.83
2018-08-04T05:51:47.679Z,96235.09
2018-08-04T05:54:17.965Z,96242.41
2018-08-04T05:56:48.237Z,96240.42
2018-08-04T05:59:19.011Z,96244.06
2018-08-04T06:01:49.211Z,96250.26
2018-08-04T06:04:19.446Z,96246.19
2018-08-04T06:06:49.585Z,96248.27
2018-08-04T06:09:20.067Z,96249.92
2018-08-04T06:11:50.618Z,96244.26
2018-08-04T06:14:21.431Z,96247.91
2018-08-04T06:16:51.852Z,96243.40
2018-08-04T06:19:22.502Z,96244.55
2018-08-04T06:21:53.053Z,96243.58
2018-08-04T06:24:23.573Z,96244.09
2018-08-04T06:26:54.094Z,96242.69
2018-08-04T06:29:24.221Z,96237.75
2018-08-04T06:31:55.160Z,96236.49
2018-08-04T06:34:25.391Z,96242.05
2018-08-04T06:36:55.997Z,96235.80
2018-08-04T06:39:26.656Z,96235.86
2018-08-04T06:41:57.382Z,96234.87
2018-08-04T06:44:28.061Z,96235.56
2018-08-04T06:46:58.512Z,96236.58
2018-08-04T06:49:28.868Z,96233.64
2018-08-04T06:51:59.357Z,96233.30
2018-08-04T06:54:29.866Z,96237.22
2018-08-04T06:57:00.026Z,96237.58
2018-08-04T06:59:30.195Z,96241.71
2018-08-04T07:02:00.261Z,96239.34
2018-08-04T07:04:30.364Z,96243.17
2018-08-04T07:07:00.499Z,96241.61
2018-08-04T07:09:30.709Z,96239.41
2018-08-04T07:12:00.901Z,96235.37
2018-08-04T07:14:31.023Z,96241.48
2018-08-04T07:17:01.296Z,96241.17
2018-08-04T07:19:31.425Z,96236.42
2018-08-04T07:22:01.622Z,96236.30
2018-08-04T07:24:31.776Z,96240.42
2018-08-04T07:27:01.880Z,96239.41
2018-08-04T07:30:34.348Z,96237.06
2018-08-04T07:33:04.501Z,96243.95
2018-08-04T07:35:34.641Z,96240.89
2018-08-04T07:38:04.800Z,96241.45
2018-08-04T07:40:34.964Z,96245.88
2018-08-04T07:43:05.240Z,96244.28
2018-08-04T07:45:35.363Z,96244.78
2018-08-04T07:48:05.637Z,96248.06
2018-08-04T07:50:35.792Z,96247.84
2018-08-04T07:53:06.470Z,96246.62
2018-08-04T07:55:36.948Z,96245.06
2018-08-04T07:58:07.106Z,96242.70
2018-08-04T08:00:37.184Z,96236.17
2018-08-04T08:03:07.486Z,96238.73
2018-08-04T08:05:38.322Z,96237.47
2018-08-04T08:08:08.438Z,96240.18
2018-08-04T08:10:39.314Z,96238.34
2018-08-04T08:13:09.454Z,96238.36
2018-08-04T08:15:39.761Z,96241.16
2018-08-04T08:18:09.935Z,96243.19
2018-08-04T08:20:40.197Z,96240.22
2018-08-04T08:23:10.845Z,96238.35
2018-08-04T08:25:46.038Z,96239.13
2018-08-04T08:28:16.380Z,96238.44
2018-08-04T08:30:46.586Z,96234.45
2018-08-04T08:33:16.764Z,96231.58
2018-08-04T08:35:46.938Z,96234.39
2018-08-04T08:38:17.206Z,96229.59
2018-08-04T08:40:47.685Z,96229.30
2018-08-04T08:43:17.829Z,96230.24
2018-08-04T08:45:47.999Z,96232.02
2018-08-04T08:48:18.171Z,96233.48
2018-08-04T08:50:48.333Z,96234.39
2018-08-04T08:53:18.637Z,96230.11
2018-08-04T08:55:48.880Z,96232.79
2018-08-04T08:58:19.310Z,96227.31
2018-08-04T09:00:49.648Z,96229.05
2018-08-04T09:03:19.822Z,96227.92
2018-08-04T09:05:50.013Z,96227.63
2018-08-04T09:08:22.514Z,96233.67
2018-08-04T09:10:52.837Z,96231.25
2018-08-04T09:16:59.740Z,96219.05
2018-08-04T09:19:29.859Z,96217.48
2018-08-04T09:22:00.059Z,96217.10
2018-08-04T09:24:30.516Z,96223.41
2018-08-04T09:27:00.659Z,96217.45
2018-08-04T09:33:07.062Z,96223.14
2018-08-04T09:35:37.168Z,96224.58
2018-08-04T09:38:07.724Z,96222.59
2018-08-04T09:40:37.897Z,96223.13
2018-08-04T09:43:08.136Z,96224.81
2018-08-04T09:45:38.282Z,96224.38
2018-08-04T09:48:08.882Z,96217.45
2018-08-04T09:50:39.200Z,96227.16
2018-08-04T09:53:09.280Z,96223.69
2018-08-04T09:55:39.380Z,96214.83
2018-08-04T09:58:09.595Z,96216.34
2018-08-04T10:00:46.032Z,96205.28
2018-08-04T10:03:16.272Z,96210.69
2018-08-04T10:05:46.791Z,96215.77
2018-08-04T10:08:17.918Z,96207.56
2018-08-04T10:10:48.108Z,96200.52
2018-08-04T10:13:18.246Z,96200.36
2018-08-04T10:15:48.381Z,96194.53
2018-08-04T10:18:18.476Z,96188.35
2018-08-04T10:20:48.618Z,96182.39
2018-08-04T10:23:18.760Z,96188.61
2018-08-04T10:25:49.071Z,96183.23
2018-08-04T10:28:19.197Z,96175.13
2018-08-04T10:30:49.304Z,96171.17
2018-08-04T10:33:19.414Z,96166.61
2018-08-04T10:35:49.581Z,96167.78
2018-08-04T10:41:55.839Z,96168.25
2018-08-04T10:44:26.007Z,96176.25
2018-08-04T10:46:56.155Z,96169.00
2018-08-04T10:49:26.282Z,96172.59
2018-08-04T10:51:56.595Z,96177.83
2018-08-04T11:01:38.427Z,96189.47
2018-08-04T11:04:08.641Z,96184.10
2018-08-04T11:06:39.249Z,96184.81
2018-08-04T11:09:11.277Z,96193.72
2018-08-04T11:11:41.440Z,96190.39
2018-08-04T11:17:48.089Z,96192.58
2018-08-04T11:20:18.581Z,96191.13
2018-08-04T11:22:48.859Z,96183.42
2018-08-04T11:25:19.093Z,96167.50
2018-08-04T11:27:49.261Z,96162.80
2018-08-04T11:30:19.839Z,96161.08
2018-08-04T11:32:50.003Z,96151.09
2018-08-04T11:35:20.160Z,96144.56
2018-08-04T11:37:50.548Z,96158.91
2018-08-04T11:40:20.871Z,96152.06
2018-08-04T11:43:39.127Z,96147.00
2018-08-04T11:46:09.313Z,96154.28
2018-08-04T11:48:39.696Z,96161.03
2018-08-04T11:51:09.927Z,96164.44
2018-08-04T11:53:40.075Z,96160.23
2018-08-04T11:56:10.235Z,96161.41
2018-08-04T11:58:40.595Z,96160.55
2018-08-04T12:01:10.704Z,96165.73
2018-08-04T12:03:40.787Z,96159.16
2018-08-04T12:06:11.299Z,96153.49
2018-08-04T12:08:41.387Z,96148.36
2018-08-04T12:11:11.744Z,96141.59
2018-08-04T12:13:42.031Z,96128.33
2018-08-04T12:16:12.149Z,96133.42
2018-08-04T12:18:42.464Z,96122.34
2018-08-04T12:21:12.707Z,96136.72
2018-08-04T12:23:43.631Z,96124.92
2018-08-04T12:26:14.126Z,96130.51
2018-08-04T12:28:44.283Z,96126.91
2018-08-04T12:31:14.525Z,96130.07
2018-08-04T12:33:46.191Z,96125.23
2018-08-04T12:36:16.313Z,96121.94
2018-08-04T12:38:46.423Z,96124.30
2018-08-04T12:41:16.533Z,96120.66
2018-08-04T12:43:46.291Z,96133.03
2018-08-04T12:46:16.562Z,96122.22
2018-08-04T12:48:46.765Z,96118.30
2018-08-04T12:51:16.913Z,96118.43
2018-08-04T12:53:47.423Z,96123.38
2018-08-04T12:56:17.615Z,96115.84
2018-08-04T12:58:47.928Z,96126.77
2018-08-04T13:01:18.115Z,96118.42
2018-08-04T13:03:48.239Z,96116.50
2018-08-04T13:06:18.759Z,96114.51
2018-08-04T13:08:50.359Z,96100.88
2018-08-04T13:11:20.615Z,96105.28
2018-08-04T13:13:50.805Z,96100.17
2018-08-04T13:16:21.034Z,96105.60
2018-08-04T13:18:51.753Z,96092.17
2018-08-04T13:21:21.909Z,96098.47
2018-08-04T13:23:52.361Z,96107.84
2018-08-04T13:26:22.603Z,96102.98
2018-08-04T13:28:53.401Z,96099.25
2018-08-04T13:31:23.703Z,96094.41
2018-08-04T13:33:53.848Z,96091.68
2018-08-04T13:36:25.054Z,96099.13
2018-08-04T13:38:55.379Z,96098.27
2018-08-04T13:41:26.222Z,96101.52
2018-08-04T13:43:56.535Z,96094.17
2018-08-04T13:46:26.701Z,96100.77
2018-08-04T13:48:57.282Z,96099.16
2018-08-04T13:51:27.763Z,96106.45
2018-08-04T13:53:57.937Z,96122.85
2018-08-04T13:56:28.352Z,96114.09
2018-08-04T13:58:58.766Z,96114.14
2018-08-04T14:01:29.498Z,96111.46
2018-08-04T14:03:59.686Z,96112.38
2018-08-04T14:13:42.073Z,96098.64
2018-08-04T14:16:12.452Z,96109.58
2018-08-04T14:18:42.626Z,96110.67
2018-08-04T14:21:12.868Z,96106.00
2018-08-04T14:23:42.992Z,96111.92
2018-08-04T14:26:13.250Z,96110.11
2018-08-04T14:28:44.267Z,96117.02
2018-08-04T14:31:14.561Z,96103.27
2018-08-04T14:33:44.629Z,96109.91
2018-08-04T14:36:15.550Z,96105.16
2018-08-04T14:38:46.304Z,96102.52
2018-08-04T14:41:16.418Z,96088.81
2018-08-04T14:43:46.774Z,96095.88
2018-08-04T14:46:16.974Z,96087.48
2018-08-04T14:48:47.070Z,96084.28
2018-08-04T14:54:53.560Z,96087.40
2018-08-04T14:57:23.762Z,96084.92
2018-08-04T14:59:54.846Z,96079.20
2018-08-04T15:02:25.086Z,96087.92
2018-08-04T15:04:55.393Z,96086.99
2018-08-04T15:07:25.822Z,96087.67
2018-08-04T15:09:56.176Z,96088.05
2018-08-04T15:12:25.998Z,96089.14
2018-08-04T15:14:56.144Z,96083.86
2018-08-04T15:17:26.362Z,96085.88
2018-08-04T15:19:57.448Z,96087.91
2018-08-04T15:22:27.687Z,96086.44
2018-08-04T15:24:57.988Z,96088.09
2018-08-04T15:27:28.344Z,96084.01
2018-08-04T15:29:58.462Z,96073.57
2018-08-04T15:32:28.707Z,96075.98
2018-08-04T15:34:59.265Z,96071.08
2018-08-04T15:37:29.810Z,96077.20
2018-08-04T15:39:59.970Z,96068.99
2018-08-04T15:42:30.112Z,96069.00
2018-08-04T15:45:00.334Z,96071.53
2018-08-04T15:47:30.510Z,96068.90
2018-08-04T15:50:00.664Z,96066.41
2018-08-04T15:52:30.808Z,96055.26
2018-08-04T15:55:00.930Z,96066.14
2018-08-04T15:57:31.550Z,96062.75
2018-08-04T16:00:01.703Z,96060.30
2018-08-04T16:02:31.974Z,96058.42
2018-08-04T16:05:02.116Z,96065.79
2018-08-04T16:07:32.236Z,96069.86
2018-08-04T16:10:02.328Z,96065.42
2018-08-04T16:12:32.562Z,96061.26
2018-08-04T16:15:02.698Z,96071.13
2018-08-04T16:17:32.776Z,96074.44
2018-08-04T16:20:03.039Z,96073.34
2018-08-04T16:22:33.130Z,96071.08
2018-08-04T16:25:03.412Z,96072.97
2018-08-04T16:27:33.508Z,96075.80
2018-08-04T16:33:40.906Z,96086.06
2018-08-04T16:36:10.692Z,96089.58
2018-08-04T16:38:40.801Z,96092.41
2018-08-04T16:41:11.111Z,96086.78
2018-08-04T16:43:41.836Z,96086.77
2018-08-04T16:46:12.046Z,96095.76
2018-08-04T16:48:42.212Z,96096.05
2018-08-04T16:51:12.324Z,96090.28
2018-08-04T16:53:42.398Z,96093.28
2018-08-04T16:56:12.532Z,96086.65
2018-08-04T16:58:42.642Z,96083.93
2018-08-04T17:01:12.762Z,96086.17
2018-08-04T17:03:42.843Z,96098.44
2018-08-04T17:06:12.938Z,96097.20
2018-08-04T17:08:43.197Z,96098.41
2018-08-04T17:11:12.968Z,96095.59
2018-08-04T17:13:43.111Z,96102.50
2018-08-04T17:16:13.573Z,96095.24
2018-08-04T17:18:43.789Z,96102.53
2018-08-04T17:21:13.997Z,96098.20
2018-08-04T17:23:44.283Z,96091.84
2018-08-04T17:26:14.425Z,96092.61
2018-08-04T17:28:44.538Z,96090.13
2018-08-04T17:31:14.597Z,96092.89
2018-08-04T17:33:44.676Z,96088.03
2018-08-04T17:36:14.752Z,96094.17
2018-08-04T17:38:44.873Z,96095.97
2018-08-04T17:41:15.074Z,96100.81
2018-08-04T17:43:45.382Z,96092.19
2018-08-04T17:46:15.599Z,96095.17
2018-08-04T17:48:45.768Z,96091.87
2018-08-04T17:51:15.929Z,96092.10
2018-08-04T17:53:46.356Z,96097.79
2018-08-04T17:56:16.643Z,96092.41
2018-08-04T17:58:46.864Z,96102.24
2018-08-04T18:01:16.988Z,96098.50
2018-08-04T18:03:47.064Z,96102.02
2018-08-04T18:06:17.122Z,96099.84
2018-08-04T18:08:47.458Z,96103.56
2018-08-04T18:11:17.598Z,96098.84
2018-08-04T18:13:47.666Z,96103.36
2018-08-04T18:16:17.755Z,96107.05
2018-08-04T18:18:48.501Z,96107.86
2018-08-04T18:21:18.780Z,96106.61
2018-08-04T18:23:48.958Z,96102.73
2018-08-04T18:26:19.033Z,96121.57
2018-08-04T18:28:49.254Z,96121.57
2018-08-04T18:31:19.343Z,96123.31
2018-08-04T18:33:49.448Z,96134.34
2018-08-04T18:36:19.516Z,96136.70
2018-08-04T18:38:49.702Z,96134.16
2018-08-04T18:41:19.951Z,96137.53
2018-08-04T18:43:50.059Z,96135.30
2018-08-04T18:46:20.417Z,96132.88
2018-08-04T18:48:51.082Z,96137.13
2018-08-04T18:51:21.222Z,96141.61
2018-08-04T18:53:51.438Z,96140.47
2018-08-04T18:56:21.549Z,96143.44
2018-08-04T18:58:51.627Z,96142.59
2018-08-04T19:01:21.924Z,96143.49
2018-08-04T19:03:52.226Z,96138.24
2018-08-04T19:06:22.520Z,96136.73
2018-08-04T19:08:52.631Z,96148.47
2018-08-04T19:11:23.157Z,96139.94
2018-08-04T19:13:53.301Z,96152.96
2018-08-04T19:16:23.409Z,96150.53
2018-08-04T19:18:53.631Z,96145.06
2018-08-04T19:21:23.723Z,96150.14
2018-08-04T19:23:53.857Z,96146.80
2018-08-04T19:26:23.963Z,96148.44
2018-08-04T19:28:54.113Z,96148.19
2018-08-04T19:31:24.642Z,96143.18
2018-08-04T19:33:55.005Z,96146.60
2018-08-04T19:36:25.239Z,96147.34
2018-08-04T19:38:55.523Z,96151.84
2018-08-04T19:41:25.937Z,96144.41
2018-08-04T19:43:56.165Z,96143.13
2018-08-04T19:46:26.749Z,96138.99
2018-08-04T19:48:56.893Z,96150.44
2018-08-04T19:51:26.978Z,96148.52
2018-08-04T19:53:57.353Z,96147.73
2018-08-04T19:56:27.932Z,96152.61
2018-08-04T19:58:57.995Z,96148.12
2018-08-04T20:01:28.445Z,96144.73
2018-08-04T20:03:58.925Z,96152.36
2018-08-04T20:06:29.367Z,96148.37
2018-08-04T20:08:59.852Z,96149.38
2018-08-04T20:11:30.366Z,96151.98
2018-08-04T20:14:00.702Z,96144.46
2018-08-04T20:16:31.256Z,96150.49
2018-08-04T20:19:02.212Z,96147.75
2018-08-04T20:21:33.148Z,96149.38
2018-08-04T20:24:03.960Z,96152.87
2018-08-04T20:26:34.299Z,96151.64
2018-08-04T20:29:05.452Z,96151.72
2018-08-04T20:31:35.529Z,96152.79
2018-08-04T20:34:06.319Z,96152.72
2018-08-04T20:36:36.771Z,96146.48
2018-08-04T20:39:10.164Z,96150.80
2018-08-04T20:41:40.654Z,96152.35
2018-08-04T20:44:11.069Z,96157.36
2018-08-04T20:46:41.480Z,96151.50
2018-08-04T20:49:11.975Z,96155.78
2018-08-04T20:51:42.394Z,96156.81
2018-08-04T20:54:12.873Z,96158.03
2018-08-04T20:56:43.228Z,96156.22
2018-08-04T20:59:13.595Z,96158.52
2018-08-04T21:01:58.567Z,96155.60
2018-08-04T21:04:30.104Z,96152.44
2018-08-04T21:07:01.992Z,96152.85
2018-08-04T21:09:32.473Z,96157.63
2018-08-04T21:12:03.006Z,96151.47
2018-08-04T21:14:33.315Z,96145.39
2018-08-04T21:17:03.722Z,96149.89
2018-08-04T21:19:34.464Z,96158.70
2018-08-04T21:22:05.094Z,96157.88
2018-08-04T21:24:35.577Z,96164.41
2018-08-04T21:27:06.368Z,96163.30
2018-08-04T21:29:36.774Z,96168.97
2018-08-04T21:32:07.222Z,96169.88
2018-08-04T21:34:37.701Z,96168.12
2018-08-04T21:37:08.129Z,96170.66
2018-08-04T21:39:38.500Z,96168.20
2018-08-04T21:42:09.025Z,96166.46
2018-08-04T21:44:39.492Z,96165.69
2018-08-04T21:47:10.522Z,96158.50
2018-08-04T21:49:40.953Z,96160.63
2018-08-04T21:52:11.375Z,96160.78
2018-08-04T21:54:42.294Z,96165.38
2018-08-04T21:57:13.358Z,96164.06
2018-08-04T21:59:43.723Z,96162.44
2018-08-04T22:02:14.118Z,96163.94
2018-08-04T22:04:44.494Z,96162.88
2018-08-04T22:07:56.752Z,96160.45
2018-08-04T22:10:27.148Z,96154.09
2018-08-04T22:12:58.036Z,96156.60
2018-08-04T22:15:28.630Z,96155.84
2018-08-04T22:17:59.328Z,96159.52
2018-08-04T22:20:30.598Z,96157.66
2018-08-04T22:23:00.942Z,96156.41
2018-08-04T22:25:31.511Z,96152.50
2018-08-04T22:28:02.322Z,96149.30
2018-08-04T22:30:32.833Z,96154.95
2018-08-04T22:33:03.243Z,96151.69
2018-08-04T22:35:34.318Z,96153.30
2018-08-04T22:38:05.130Z,96155.58
2018-08-04T22:40:35.685Z,96152.20
2018-08-04T22:43:06.302Z,96154.61
2018-08-04T22:46:08.952Z,96156.44
2018-08-04T22:48:39.510Z,96153.73
2018-08-04T22:51:09.932Z,96151.69
2018-08-04T22:57:17.328Z,96154.72
2018-08-04T22:59:47.707Z,96149.30
2018-08-04T23:02:18.298Z,96158.91
2018-08-04T23:04:48.757Z,96155.06
2018-08-04T23:07:21.602Z,96156.77
2018-08-04T23:09:53.758Z,96164.28
2018-08-04T23:12:24.134Z,96161.36
2018-08-04T23:14:54.490Z,96169.63
2018-08-04T23:17:24.954Z,96167.37
2018-08-04T23:19:55.448Z,96164.68
2018-08-04T23:22:25.816Z,96170.02
2018-08-04T23:24:56.254Z,96172.64
2018-08-04T23:27:26.602Z,96174.38
2018-08-04T23:29:58.685Z,96167.28
2018-08-04T23:32:29.246Z,96164.06
2018-08-04T23:34:59.648Z,96169.15
2018-08-04T23:37:30.033Z,96169.98
2018-08-04T23:40:00.424Z,96167.27
2018-08-04T23:42:30.932Z,96167.23
2018-08-04T23:45:02.125Z,96168.31
2018-08-04T23:47:33.234Z,96162.48
2018-08-04T23:50:03.986Z,96166.45
2018-08-04T23:52:34.667Z,96171.62
2018-08-04T23:55:05.338Z,96168.80
